sensor_id;sensor_type;location;lat;lon;timestamp;pressure;altitude;pressure_sealevel;temperature;humidity
29907;BME280;16776;50.958;10.994;2023-02-08T00:00:37;100797.59;;;-3.40;92.76
29907;BME280;16776;50.958;10.994;2023-02-08T00:03:04;100786.72;;;-3.39;92.92
29907;BME280;16776;50.958;10.994;2023-02-08T00:05:31;100787.59;;;-3.39;92.84
29907;BME280;16776;50.958;10.994;2023-02-08T00:07:59;100785.28;;;-3.35;92.89
29907;BME280;16776;50.958;10.994;2023-02-08T00:10:25;100785.16;;;-3.37;93.01
29907;BME280;16776;50.958;10.994;2023-02-08T00:12:52;100793.59;;;-3.36;92.45
29907;BME280;16776;50.958;10.994;2023-02-08T00:15:18;100786.81;;;-3.38;92.52
29907;BME280;16776;50.958;10.994;2023-02-08T00:17:45;100785.06;;;-3.39;92.67
29907;BME280;16776;50.958;10.994;2023-02-08T00:20:12;100782.47;;;-3.40;92.52
29907;BME280;16776;50.958;10.994;2023-02-08T00:22:39;100782.38;;;-3.42;92.76
29907;BME280;16776;50.958;10.994;2023-02-08T00:25:08;100772.28;;;-3.42;92.33
29907;BME280;16776;50.958;10.994;2023-02-08T00:27:35;100774.59;;;-3.45;92.36
29907;BME280;16776;50.958;10.994;2023-02-08T00:30:02;100780.34;;;-3.47;92.64
29907;BME280;16776;50.958;10.994;2023-02-08T00:32:29;100786.13;;;-3.48;92.22
29907;BME280;16776;50.958;10.994;2023-02-08T00:34:56;100780.13;;;-3.50;92.15
29907;BME280;16776;50.958;10.994;2023-02-08T00:37:22;100788.34;;;-3.53;92.15
29907;BME280;16776;50.958;10.994;2023-02-08T00:39:49;100781.47;;;-3.55;92.43
29907;BME280;16776;50.958;10.994;2023-02-08T00:42:17;100777.13;;;-3.58;92.22
29907;BME280;16776;50.958;10.994;2023-02-08T00:44:43;100776.94;;;-3.61;91.89
29907;BME280;16776;50.958;10.994;2023-02-08T00:47:10;100778.38;;;-3.64;91.74
29907;BME280;16776;50.958;10.994;2023-02-08T00:49:37;100785.75;;;-3.67;91.86
29907;BME280;16776;50.958;10.994;2023-02-08T00:52:03;100780.50;;;-3.70;92.17
29907;BME280;16776;50.958;10.994;2023-02-08T00:54:30;100777.78;;;-3.73;91.84
29907;BME280;16776;50.958;10.994;2023-02-08T00:56:57;100781.84;;;-3.75;92.35
29907;BME280;16776;50.958;10.994;2023-02-08T00:59:25;100780.97;;;-3.76;92.08
29907;BME280;16776;50.958;10.994;2023-02-08T01:01:51;100785.03;;;-3.78;92.36
29907;BME280;16776;50.958;10.994;2023-02-08T01:04:18;100778.16;;;-3.81;92.31
29907;BME280;16776;50.958;10.994;2023-02-08T01:06:45;100781.44;;;-3.82;92.01
29907;BME280;16776;50.958;10.994;2023-02-08T01:09:11;100781.34;;;-3.83;92.07
29907;BME280;16776;50.958;10.994;2023-02-08T01:11:38;100786.28;;;-3.85;92.29
29907;BME280;16776;50.958;10.994;2023-02-08T01:14:04;100784.56;;;-3.86;92.30
29907;BME280;16776;50.958;10.994;2023-02-08T01:16:33;100777.00;;;-3.86;92.11
29907;BME280;16776;50.958;10.994;2023-02-08T01:19:01;100781.06;;;-3.88;92.07
29907;BME280;16776;50.958;10.994;2023-02-08T01:21:31;100781.06;;;-3.88;92.17
29907;BME280;16776;50.958;10.994;2023-02-08T01:23:59;100785.00;;;-3.91;91.90
29907;BME280;16776;50.958;10.994;2023-02-08T01:26:25;100787.44;;;-3.93;91.97
29907;BME280;16776;50.958;10.994;2023-02-08T01:28:54;100784.81;;;-3.94;92.01
29907;BME280;16776;50.958;10.994;2023-02-08T01:31:23;100777.16;;;-3.96;92.20
29907;BME280;16776;50.958;10.994;2023-02-08T01:33:53;100781.25;;;-3.98;91.97
29907;BME280;16776;50.958;10.994;2023-02-08T01:36:22;100780.25;;;-4.00;92.10
29907;BME280;16776;50.958;10.994;2023-02-08T01:38:48;100780.03;;;-4.03;91.91
29907;BME280;16776;50.958;10.994;2023-02-08T01:41:17;100782.38;;;-4.06;92.00
29907;BME280;16776;50.958;10.994;2023-02-08T01:46:55;100787.00;;;-4.12;91.82
29907;BME280;16776;50.958;10.994;2023-02-08T01:49:25;100790.41;;;-4.11;91.92
29907;BME280;16776;50.958;10.994;2023-02-08T01:51:56;100780.88;;;-4.15;91.88
29907;BME280;16776;50.958;10.994;2023-02-08T01:54:27;100790.75;;;-4.18;91.83
29907;BME280;16776;50.958;10.994;2023-02-08T01:56:56;100778.84;;;-4.21;91.71
29907;BME280;16776;50.958;10.994;2023-02-08T01:59:25;100777.09;;;-4.22;91.78
29907;BME280;16776;50.958;10.994;2023-02-08T02:01:53;100786.28;;;-4.23;91.72
29907;BME280;16776;50.958;10.994;2023-02-08T02:04:21;100781.94;;;-4.25;91.86
29907;BME280;16776;50.958;10.994;2023-02-08T02:06:52;100789.59;;;-4.24;91.76
29907;BME280;16776;50.958;10.994;2023-02-08T02:09:23;100772.63;;;-4.26;91.68
29907;BME280;16776;50.958;10.994;2023-02-08T02:11:52;100775.03;;;-4.28;91.89
29907;BME280;16776;50.958;10.994;2023-02-08T02:14:20;100770.69;;;-4.30;91.73
29907;BME280;16776;50.958;10.994;2023-02-08T02:16:47;100773.97;;;-4.31;91.83
29907;BME280;16776;50.958;10.994;2023-02-08T02:19:32;100778.44;;;-4.27;91.86
29907;BME280;16776;50.958;10.994;2023-02-08T02:22:19;100763.03;;;-4.32;91.61
29907;BME280;16776;50.958;10.994;2023-02-08T02:25:12;100771.34;;;-4.33;91.89
29907;BME280;16776;50.958;10.994;2023-02-08T02:28:02;100768.72;;;-4.34;91.67
29907;BME280;16776;50.958;10.994;2023-02-08T02:30:41;100776.97;;;-4.37;91.45
29907;BME280;16776;50.958;10.994;2023-02-08T02:36:27;100770.66;;;-4.43;91.52
29907;BME280;16776;50.958;10.994;2023-02-08T02:39:05;100773.06;;;-4.45;91.61
29907;BME280;16776;50.958;10.994;2023-02-08T02:41:43;100772.94;;;-4.46;91.61
29907;BME280;16776;50.958;10.994;2023-02-08T02:44:37;100764.09;;;-4.53;91.19
29907;BME280;16776;50.958;10.994;2023-02-08T02:47:11;100759.97;;;-4.52;91.78
29907;BME280;16776;50.958;10.994;2023-02-08T02:49:47;100768.59;;;-4.49;91.55
29907;BME280;16776;50.958;10.994;2023-02-08T02:52:19;100769.38;;;-4.50;91.73
29907;BME280;16776;50.958;10.994;2023-02-08T02:54:51;100775.03;;;-4.52;91.59
29907;BME280;16776;50.958;10.994;2023-02-08T02:57:22;100772.63;;;-4.51;91.61
29907;BME280;16776;50.958;10.994;2023-02-08T02:59:51;100774.94;;;-4.54;91.59
29907;BME280;16776;50.958;10.994;2023-02-08T03:02:18;100764.78;;;-4.55;91.48
29907;BME280;16776;50.958;10.994;2023-02-08T03:04:50;100774.94;;;-4.54;91.33
29907;BME280;16776;50.958;10.994;2023-02-08T03:07:28;100764.78;;;-4.55;91.54
29907;BME280;16776;50.958;10.994;2023-02-08T03:10:06;100776.38;;;-4.57;91.62
29907;BME280;16776;50.958;10.994;2023-02-08T03:12:43;100758.38;;;-4.64;91.66
29907;BME280;16776;50.958;10.994;2023-02-08T03:15:17;100772.13;;;-4.58;91.56
29907;BME280;16776;50.958;10.994;2023-02-08T03:17:57;100749.00;;;-4.78;91.07
29907;BME280;16776;50.958;10.994;2023-02-08T03:20:31;100770.19;;;-4.63;91.39
29907;BME280;16776;50.958;10.994;2023-02-08T03:23:07;100771.06;;;-4.62;91.31
29907;BME280;16776;50.958;10.994;2023-02-08T03:25:40;100777.50;;;-4.66;91.44
29907;BME280;16776;50.958;10.994;2023-02-08T03:28:16;100774.88;;;-4.67;91.23
29907;BME280;16776;50.958;10.994;2023-02-08T03:30:54;100778.81;;;-4.71;91.15
29907;BME280;16776;50.958;10.994;2023-02-08T03:33:29;100783.63;;;-4.74;91.17
29907;BME280;16776;50.958;10.994;2023-02-08T03:36:03;100775.59;;;-4.81;91.10
29907;BME280;16776;50.958;10.994;2023-02-08T03:38:35;100785.72;;;-4.80;91.09
29907;BME280;16776;50.958;10.994;2023-02-08T03:41:05;100784.78;;;-4.82;91.17
29907;BME280;16776;50.958;10.994;2023-02-08T03:43:37;100792.09;;;-4.85;91.03
29907;BME280;16776;50.958;10.994;2023-02-08T03:46:09;100789.38;;;-4.88;90.69
29907;BME280;16776;50.958;10.994;2023-02-08T03:48:38;100785.03;;;-5.02;91.00
29907;BME280;16776;50.958;10.994;2023-02-08T03:51:07;100788.94;;;-4.94;90.94
29907;BME280;16776;50.958;10.994;2023-02-08T03:53:37;100788.94;;;-4.94;91.03
29907;BME280;16776;50.958;10.994;2023-02-08T03:56:09;100795.50;;;-4.96;90.94
29907;BME280;16776;50.958;10.994;2023-02-08T03:58:41;100791.88;;;-5.00;91.00
29907;BME280;16776;50.958;10.994;2023-02-08T04:01:15;100797.69;;;-5.01;90.61
29907;BME280;16776;50.958;10.994;2023-02-08T04:03:43;100801.84;;;-5.01;90.80
29907;BME280;16776;50.958;10.994;2023-02-08T04:06:10;100794.31;;;-5.13;91.04
29907;BME280;16776;50.958;10.994;2023-02-08T04:08:39;100804.59;;;-5.10;90.78
29907;BME280;16776;50.958;10.994;2023-02-08T04:11:06;100798.50;;;-5.13;91.04
29907;BME280;16776;50.958;10.994;2023-02-08T04:13:32;100799.78;;;-5.18;91.08
29907;BME280;16776;50.958;10.994;2023-02-08T04:15:59;100807.53;;;-5.15;90.97
29907;BME280;16776;50.958;10.994;2023-02-08T04:18:26;100799.78;;;-5.18;91.01
29907;BME280;16776;50.958;10.994;2023-02-08T04:20:52;100800.56;;;-5.19;90.97
29907;BME280;16776;50.958;10.994;2023-02-08T04:23:19;100801.31;;;-5.20;90.90
29907;BME280;16776;50.958;10.994;2023-02-08T04:25:47;100794.56;;;-5.21;90.99
29907;BME280;16776;50.958;10.994;2023-02-08T04:28:13;100796.94;;;-5.23;91.20
29907;BME280;16776;50.958;10.994;2023-02-08T04:30:40;100801.84;;;-5.24;90.85
29907;BME280;16776;50.958;10.994;2023-02-08T04:33:06;100799.25;;;-5.26;90.74
29907;BME280;16776;50.958;10.994;2023-02-08T04:35:33;100796.63;;;-5.27;91.03
29907;BME280;16776;50.958;10.994;2023-02-08T04:38:00;100794.88;;;-5.28;90.85
29907;BME280;16776;50.958;10.994;2023-02-08T04:40:26;100793.13;;;-5.29;90.60
29907;BME280;16776;50.958;10.994;2023-02-08T04:42:54;100786.34;;;-5.30;90.83
29907;BME280;16776;50.958;10.994;2023-02-08T04:45:21;100783.66;;;-5.33;90.63
29907;BME280;16776;50.958;10.994;2023-02-08T04:47:50;100772.19;;;-5.42;91.04
29907;BME280;16776;50.958;10.994;2023-02-08T04:50:17;100783.53;;;-5.35;90.89
29907;BME280;16776;50.958;10.994;2023-02-08T04:52:43;100781.78;;;-5.36;91.10
29907;BME280;16776;50.958;10.994;2023-02-08T04:55:10;100783.41;;;-5.36;91.21
29907;BME280;16776;50.958;10.994;2023-02-08T04:57:36;100782.53;;;-5.37;90.95
29907;BME280;16776;50.958;10.994;2023-02-08T05:00:05;100779.28;;;-5.36;90.85
29907;BME280;16776;50.958;10.994;2023-02-08T05:02:32;100780.78;;;-5.38;90.78
29907;BME280;16776;50.958;10.994;2023-02-08T05:04:59;100783.22;;;-5.39;91.03
29907;BME280;16776;50.958;10.994;2023-02-08T05:07:25;100773.06;;;-5.41;90.96
29907;BME280;16776;50.958;10.994;2023-02-08T05:09:52;100772.06;;;-5.43;90.88
29907;BME280;16776;50.958;10.994;2023-02-08T05:12:18;100762.69;;;-5.46;90.95
29907;BME280;16776;50.958;10.994;2023-02-08T05:14:45;100770.09;;;-5.47;90.99
29907;BME280;16776;50.958;10.994;2023-02-08T05:17:13;100760.72;;;-5.50;90.59
29907;BME280;16776;50.958;10.994;2023-02-08T05:19:39;100757.13;;;-5.53;91.00
29907;BME280;16776;50.958;10.994;2023-02-08T05:22:06;100766.94;;;-5.56;90.29
29907;BME280;16776;50.958;10.994;2023-02-08T05:24:32;100765.41;;;-5.54;92.31
29907;BME280;16776;50.958;10.994;2023-02-08T05:26:59;100769.66;;;-5.30;96.52
29907;BME280;16776;50.958;10.994;2023-02-08T05:29:25;100764.44;;;-4.85;99.05
29907;BME280;16776;50.958;10.994;2023-02-08T05:31:52;100757.28;;;-4.42;98.48
29907;BME280;16776;50.958;10.994;2023-02-08T05:34:20;100760.97;;;-4.12;96.89
29907;BME280;16776;50.958;10.994;2023-02-08T05:36:46;100762.94;;;-3.95;95.16
29907;BME280;16776;50.958;10.994;2023-02-08T05:39:13;100762.66;;;-3.87;94.13
29907;BME280;16776;50.958;10.994;2023-02-08T05:41:40;100762.66;;;-3.87;92.81
29907;BME280;16776;50.958;10.994;2023-02-08T05:44:09;100760.72;;;-3.91;92.33
29907;BME280;16776;50.958;10.994;2023-02-08T05:46:35;100763.53;;;-3.99;91.79
29907;BME280;16776;50.958;10.994;2023-02-08T05:49:02;100763.78;;;-4.08;91.29
29907;BME280;16776;50.958;10.994;2023-02-08T05:51:30;100766.56;;;-4.16;91.29
29907;BME280;16776;50.958;10.994;2023-02-08T05:53:57;100769.25;;;-4.27;90.97
29907;BME280;16776;50.958;10.994;2023-02-08T05:56:23;100780.34;;;-4.36;90.98
29907;BME280;16776;50.958;10.994;2023-02-08T05:58:50;100779.59;;;-4.47;90.82
29907;BME280;16776;50.958;10.994;2023-02-08T06:01:16;100774.75;;;-4.57;90.57
29907;BME280;16776;50.958;10.994;2023-02-08T06:03:43;100788.31;;;-4.67;90.21
29907;BME280;16776;50.958;10.994;2023-02-08T06:06:10;100783.44;;;-4.77;90.31
29907;BME280;16776;50.958;10.994;2023-02-08T06:08:38;100791.97;;;-4.86;90.15
29907;BME280;16776;50.958;10.994;2023-02-08T06:11:05;100795.28;;;-4.99;90.04
29907;BME280;16776;50.958;10.994;2023-02-08T06:13:35;100802.06;;;-5.10;89.96
29907;BME280;16776;50.958;10.994;2023-02-08T06:16:03;100805.47;;;-5.21;90.03
29907;BME280;16776;50.958;10.994;2023-02-08T06:18:30;100788.09;;;-5.29;90.18
29907;BME280;16776;50.958;10.994;2023-02-08T06:20:57;100792.50;;;-5.38;89.92
29907;BME280;16776;50.958;10.994;2023-02-08T06:23:25;100793.56;;;-5.47;90.37
29907;BME280;16776;50.958;10.994;2023-02-08T06:25:53;100792.91;;;-5.56;90.11
29907;BME280;16776;50.958;10.994;2023-02-08T06:28:20;100801.00;;;-5.60;90.47
29907;BME280;16776;50.958;10.994;2023-02-08T06:30:48;100801.50;;;-5.64;90.48
29907;BME280;16776;50.958;10.994;2023-02-08T06:33:14;100796.16;;;-5.68;90.38
29907;BME280;16776;50.958;10.994;2023-02-08T06:35:43;100804.38;;;-5.71;90.18
29907;BME280;16776;50.958;10.994;2023-02-08T06:38:10;100798.03;;;-5.77;89.94
29907;BME280;16776;50.958;10.994;2023-02-08T06:40:36;100792.91;;;-5.79;90.22
29907;BME280;16776;50.958;10.994;2023-02-08T06:43:04;100794.41;;;-5.81;89.97
29907;BME280;16776;50.958;10.994;2023-02-08T06:45:31;100790.81;;;-5.85;90.28
29907;BME280;16776;50.958;10.994;2023-02-08T06:47:58;100792.34;;;-5.87;90.49
29907;BME280;16776;50.958;10.994;2023-02-08T06:50:24;100787.94;;;-5.89;90.47
29907;BME280;16776;50.958;10.994;2023-02-08T06:52:51;100788.50;;;-5.93;90.42
29907;BME280;16776;50.958;10.994;2023-02-08T06:55:17;100797.66;;;-5.94;90.07
29907;BME280;16776;50.958;10.994;2023-02-08T06:57:44;100798.22;;;-5.98;89.99
29907;BME280;16776;50.958;10.994;2023-02-08T07:00:13;100798.22;;;-5.98;90.30
29907;BME280;16776;50.958;10.994;2023-02-08T07:02:40;100802.88;;;-6.02;89.70
29907;BME280;16776;50.958;10.994;2023-02-08T07:05:07;100805.16;;;-6.05;90.28
29907;BME280;16776;50.958;10.994;2023-02-08T07:07:33;100800.91;;;-6.06;90.31
29907;BME280;16776;50.958;10.994;2023-02-08T07:10:00;100799.28;;;-6.06;90.57
29907;BME280;16776;50.958;10.994;2023-02-08T07:12:26;100801.16;;;-6.03;91.04
29907;BME280;16776;50.958;10.994;2023-02-08T07:14:53;100800.59;;;-5.99;91.54
29907;BME280;16776;50.958;10.994;2023-02-08T07:17:21;100799.66;;;-5.90;91.51
29907;BME280;16776;50.958;10.994;2023-02-08T07:19:47;100787.56;;;-5.84;92.24
29907;BME280;16776;50.958;10.994;2023-02-08T07:22:15;100782.44;;;-5.73;91.90
29907;BME280;16776;50.958;10.994;2023-02-08T07:24:41;100791.59;;;-5.62;92.25
29907;BME280;16776;50.958;10.994;2023-02-08T07:27:10;100788.31;;;-5.50;92.85
29907;BME280;16776;50.958;10.994;2023-02-08T07:29:37;100781.66;;;-5.37;93.20
29907;BME280;16776;50.958;10.994;2023-02-08T07:32:05;100792.03;;;-5.21;93.01
29907;BME280;16776;50.958;10.994;2023-02-08T07:34:35;100792.44;;;-5.04;93.64
29907;BME280;16776;50.958;10.994;2023-02-08T07:37:02;100786.63;;;-4.91;93.65
29907;BME280;16776;50.958;10.994;2023-02-08T07:39:28;100791.97;;;-4.75;93.68
29907;BME280;16776;50.958;10.994;2023-02-08T07:41:55;100788.94;;;-4.57;94.01
29907;BME280;16776;50.958;10.994;2023-02-08T07:44:22;100790.19;;;-4.39;94.30
29907;BME280;16776;50.958;10.994;2023-02-08T07:46:49;100793.16;;;-4.20;94.25
29907;BME280;16776;50.958;10.994;2023-02-08T07:49:15;100785.06;;;-4.03;93.91
29907;BME280;16776;50.958;10.994;2023-02-08T07:51:43;100777.56;;;-3.90;93.61
29907;BME280;16776;50.958;10.994;2023-02-08T07:54:10;100780.78;;;-3.79;93.79
29907;BME280;16776;50.958;10.994;2023-02-08T07:56:36;100781.56;;;-3.67;93.31
29907;BME280;16776;50.958;10.994;2023-02-08T07:59:03;100784.88;;;-3.55;93.45
29907;BME280;16776;50.958;10.994;2023-02-08T08:01:29;100787.31;;;-3.43;93.23
29907;BME280;16776;50.958;10.994;2023-02-08T08:03:56;100779.63;;;-3.31;93.86
29907;BME280;16776;50.958;10.994;2023-02-08T08:06:22;100781.00;;;-3.23;93.14
29907;BME280;16776;50.958;10.994;2023-02-08T08:08:50;100776.34;;;-3.17;92.73
29907;BME280;16776;50.958;10.994;2023-02-08T08:11:19;100769.16;;;-3.11;93.44
29907;BME280;16776;50.958;10.994;2023-02-08T08:13:46;100723.25;;;-3.33;93.24
29907;BME280;16776;50.958;10.994;2023-02-08T08:16:13;100780.47;;;-2.91;94.15
29907;BME280;16776;50.958;10.994;2023-02-08T08:18:40;100765.31;;;-2.78;94.16
29907;BME280;16776;50.958;10.994;2023-02-08T08:21:07;100764.41;;;-2.66;93.39
29907;BME280;16776;50.958;10.994;2023-02-08T08:23:34;100762.59;;;-2.53;93.88
29907;BME280;16776;50.958;10.994;2023-02-08T08:26:07;100757.50;;;-2.40;93.07
29907;BME280;16776;50.958;10.994;2023-02-08T08:28:34;100757.88;;;-2.34;93.41
29907;BME280;16776;50.958;10.994;2023-02-08T08:31:01;100767.66;;;-2.26;94.03
29907;BME280;16776;50.958;10.994;2023-02-08T08:33:27;100766.59;;;-2.14;93.99
29907;BME280;16776;50.958;10.994;2023-02-08T08:35:54;100768.19;;;-2.02;93.71
29907;BME280;16776;50.958;10.994;2023-02-08T08:38:21;100770.63;;;-1.89;94.23
29907;BME280;16776;50.958;10.994;2023-02-08T08:40:47;100773.06;;;-1.75;93.62
29907;BME280;16776;50.958;10.994;2023-02-08T08:43:15;100771.47;;;-1.59;94.77
29907;BME280;16776;50.958;10.994;2023-02-08T08:45:42;100772.44;;;-1.42;94.75
29907;BME280;16776;50.958;10.994;2023-02-08T08:48:08;100767.63;;;-1.23;94.75
29907;BME280;16776;50.958;10.994;2023-02-08T08:50:35;100771.91;;;-1.06;94.36
29907;BME280;16776;50.958;10.994;2023-02-08T08:53:01;100772.66;;;-0.92;94.30
29907;BME280;16776;50.958;10.994;2023-02-08T08:55:28;100772.66;;;-0.76;94.05
29907;BME280;16776;50.958;10.994;2023-02-08T08:57:54;100770.00;;;-0.63;94.51
29907;BME280;16776;50.958;10.994;2023-02-08T09:00:25;100765.97;;;-0.43;94.60
29907;BME280;16776;50.958;10.994;2023-02-08T09:02:52;100764.38;;;-0.25;94.66
29907;BME280;16776;50.958;10.994;2023-02-08T09:05:26;100770.50;;;-0.03;94.89
29907;BME280;16776;50.958;10.994;2023-02-08T09:07:53;100770.72;;;0.17;95.04
29907;BME280;16776;50.958;10.994;2023-02-08T09:10:19;100761.59;;;0.39;94.77
29907;BME280;16776;50.958;10.994;2023-02-08T09:12:46;100766.75;;;0.58;94.53
29907;BME280;16776;50.958;10.994;2023-02-08T09:15:12;100764.22;;;0.76;94.55
29907;BME280;16776;50.958;10.994;2023-02-08T09:17:43;100769.31;;;0.93;93.87
29907;BME280;16776;50.958;10.994;2023-02-08T09:20:10;100771.63;;;1.07;93.73
29907;BME280;16776;50.958;10.994;2023-02-08T09:22:37;100773.91;;;1.20;94.06
29907;BME280;16776;50.958;10.994;2023-02-08T09:25:04;100773.66;;;1.33;93.55
29907;BME280;16776;50.958;10.994;2023-02-08T09:27:32;100768.97;;;1.42;94.07
29907;BME280;16776;50.958;10.994;2023-02-08T09:29:58;100771.94;;;1.51;93.60
29907;BME280;16776;50.958;10.994;2023-02-08T09:32:25;100773.16;;;1.59;93.11
29907;BME280;16776;50.958;10.994;2023-02-08T09:34:56;100772.00;;;1.72;93.33
29907;BME280;16776;50.958;10.994;2023-02-08T09:37:22;100775.72;;;1.80;94.15
29907;BME280;16776;50.958;10.994;2023-02-08T09:39:49;100761.00;;;1.92;93.45
29907;BME280;16776;50.958;10.994;2023-02-08T09:42:37;100765.22;;;2.12;93.12
29907;BME280;16776;50.958;10.994;2023-02-08T09:45:22;100763.16;;;2.23;94.30
29907;BME280;16776;50.958;10.994;2023-02-08T09:47:59;100768.91;;;2.40;94.37
29907;BME280;16776;50.958;10.994;2023-02-08T09:50:31;100770.38;;;2.55;93.62
29907;BME280;16776;50.958;10.994;2023-02-08T09:53:02;100770.19;;;2.72;93.97
29907;BME280;16776;50.958;10.994;2023-02-08T09:55:36;100770.81;;;2.88;93.48
29907;BME280;16776;50.958;10.994;2023-02-08T09:58:07;100768.00;;;3.03;93.84
29907;BME280;16776;50.958;10.994;2023-02-08T10:00:41;100766.03;;;3.18;94.19
29907;BME280;16776;50.958;10.994;2023-02-08T10:03:18;100759.78;;;3.32;94.07
29907;BME280;16776;50.958;10.994;2023-02-08T10:05:48;100754.22;;;3.42;93.21
29907;BME280;16776;50.958;10.994;2023-02-08T10:08:14;100760.50;;;3.52;93.21
29907;BME280;16776;50.958;10.994;2023-02-08T10:10:47;100754.28;;;3.68;93.75
29907;BME280;16776;50.958;10.994;2023-02-08T10:13:35;100764.91;;;3.80;92.56
29907;BME280;16776;50.958;10.994;2023-02-08T10:16:13;100764.28;;;3.87;92.46
29907;BME280;16776;50.958;10.994;2023-02-08T10:18:46;100755.19;;;3.94;92.79
29907;BME280;16776;50.958;10.994;2023-02-08T10:21:45;100754.72;;;4.05;93.17
29907;BME280;16776;50.958;10.994;2023-02-08T10:24:25;100757.41;;;4.10;92.63
29907;BME280;16776;50.958;10.994;2023-02-08T10:27:00;100752.50;;;4.16;92.82
29907;BME280;16776;50.958;10.994;2023-02-08T10:29:45;100747.72;;;4.25;92.79
29907;BME280;16776;50.958;10.994;2023-02-08T10:32:23;100751.22;;;4.29;92.70
29907;BME280;16776;50.958;10.994;2023-02-08T10:34:57;100743.75;;;4.33;92.15
29907;BME280;16776;50.958;10.994;2023-02-08T10:37:30;100747.38;;;4.40;92.06
29907;BME280;16776;50.958;10.994;2023-02-08T10:40:06;100746.56;;;4.42;92.27
29907;BME280;16776;50.958;10.994;2023-02-08T10:42:40;100736.34;;;4.41;92.11
29907;BME280;16776;50.958;10.994;2023-02-08T10:45:21;100730.59;;;4.48;91.58
29907;BME280;16776;50.958;10.994;2023-02-08T10:47:51;100733.94;;;4.45;91.81
29907;BME280;16776;50.958;10.994;2023-02-08T10:50:23;100731.50;;;4.50;91.89
29907;BME280;16776;50.958;10.994;2023-02-08T10:52:54;100728.22;;;4.54;91.78
29907;BME280;16776;50.958;10.994;2023-02-08T10:55:21;100721.56;;;4.57;92.05
29907;BME280;16776;50.958;10.994;2023-02-08T10:57:50;100678.44;;;4.38;91.79
29907;BME280;16776;50.958;10.994;2023-02-08T11:00:20;100712.47;;;4.67;91.57
29907;BME280;16776;50.958;10.994;2023-02-08T11:02:50;100711.81;;;4.73;91.62
29907;BME280;16776;50.958;10.994;2023-02-08T11:05:19;100710.28;;;4.78;91.73
29907;BME280;16776;50.958;10.994;2023-02-08T11:08:05;100699.53;;;4.89;91.77
29907;BME280;16776;50.958;10.994;2023-02-08T11:10:33;100699.44;;;4.86;91.85
29907;BME280;16776;50.958;10.994;2023-02-08T11:13:02;100693.63;;;4.90;91.39
29907;BME280;16776;50.958;10.994;2023-02-08T11:15:42;100692.88;;;4.94;91.29
29907;BME280;16776;50.958;10.994;2023-02-08T11:18:18;100683.66;;;4.99;91.09
29907;BME280;16776;50.958;10.994;2023-02-08T11:20:47;100683.66;;;4.99;91.67
29907;BME280;16776;50.958;10.994;2023-02-08T11:23:20;100674.28;;;4.98;91.06
29907;BME280;16776;50.958;10.994;2023-02-08T11:25:48;100678.81;;;5.09;92.24
29907;BME280;16776;50.958;10.994;2023-02-08T11:28:27;100680.63;;;5.13;91.68
29907;BME280;16776;50.958;10.994;2023-02-08T11:30:55;100684.91;;;5.14;91.41
29907;BME280;16776;50.958;10.994;2023-02-08T11:33:22;100678.19;;;5.16;91.45
29907;BME280;16776;50.958;10.994;2023-02-08T11:36:04;100675.06;;;5.26;91.02
29907;BME280;16776;50.958;10.994;2023-02-08T11:38:35;100668.31;;;5.28;91.17
29907;BME280;16776;50.958;10.994;2023-02-08T11:41:03;100672.69;;;5.32;91.45
29907;BME280;16776;50.958;10.994;2023-02-08T11:43:38;100676.09;;;5.32;91.20
29907;BME280;16776;50.958;10.994;2023-02-08T11:46:05;100672.81;;;5.36;91.35
29907;BME280;16776;50.958;10.994;2023-02-08T11:48:38;100663.66;;;5.44;90.72
29907;BME280;16776;50.958;10.994;2023-02-08T11:51:07;100665.34;;;5.44;91.57
29907;BME280;16776;50.958;10.994;2023-02-08T11:53:38;100661.25;;;5.51;90.93
29907;BME280;16776;50.958;10.994;2023-02-08T11:56:16;100662.28;;;5.57;91.06
29907;BME280;16776;50.958;10.994;2023-02-08T11:58:55;100652.97;;;5.59;90.06
29907;BME280;16776;50.958;10.994;2023-02-08T12:01:26;100652.97;;;5.59;90.68
29907;BME280;16776;50.958;10.994;2023-02-08T12:03:54;100657.16;;;5.57;90.35
29907;BME280;16776;50.958;10.994;2023-02-08T12:06:41;100653.19;;;5.67;90.71
29907;BME280;16776;50.958;10.994;2023-02-08T12:09:23;100654.03;;;5.67;91.24
29907;BME280;16776;50.958;10.994;2023-02-08T12:11:53;100655.78;;;5.68;90.37
29907;BME280;16776;50.958;10.994;2023-02-08T12:14:31;100648.16;;;5.71;90.64
29907;BME280;16776;50.958;10.994;2023-02-08T12:17:21;100649.13;;;5.75;89.80
29907;BME280;16776;50.958;10.994;2023-02-08T12:23:04;100635.38;;;5.71;90.40
29907;BME280;16776;50.958;10.994;2023-02-08T12:25:39;100637.94;;;5.71;89.50
29907;BME280;16776;50.958;10.994;2023-02-08T12:28:14;100640.50;;;5.71;90.26
29907;BME280;16776;50.958;10.994;2023-02-08T12:30:49;100639.56;;;5.68;90.16
29907;BME280;16776;50.958;10.994;2023-02-08T12:33:27;100625.06;;;5.67;89.79
29907;BME280;16776;50.958;10.994;2023-02-08T12:36:07;100624.09;;;5.63;90.33
29907;BME280;16776;50.958;10.994;2023-02-08T12:38:55;100623.22;;;5.61;89.52
29907;BME280;16776;50.958;10.994;2023-02-08T12:41:49;100612.84;;;5.55;89.94
29907;BME280;16776;50.958;10.994;2023-02-08T12:44:28;100617.09;;;5.55;89.87
29907;BME280;16776;50.958;10.994;2023-02-08T12:47:05;100612.69;;;5.49;90.61
29907;BME280;16776;50.958;10.994;2023-02-08T12:49:49;100608.47;;;5.51;90.01
29907;BME280;16776;50.958;10.994;2023-02-08T12:52:29;100593.84;;;5.45;90.05
29907;BME280;16776;50.958;10.994;2023-02-08T12:55:00;100593.75;;;5.41;89.88
29907;BME280;16776;50.958;10.994;2023-02-08T12:57:30;100597.06;;;5.37;90.33
29907;BME280;16776;50.958;10.994;2023-02-08T13:00:01;100584.22;;;5.35;90.04
29907;BME280;16776;50.958;10.994;2023-02-08T13:02:32;100566.00;;;5.22;90.61
29907;BME280;16776;50.958;10.994;2023-02-08T13:05:03;100586.59;;;5.28;90.03
29907;BME280;16776;50.958;10.994;2023-02-08T13:07:33;100567.72;;;5.23;89.91